Saraland, AL (36571)

5:28 PM CST on November 27, 2014 (GMT -0600)
The Legends At Magnolia Grove | Change Station
CLOSE
Current Station
Personal Weather Station
Location: Mobile, AL
Elevation: 171 ft
Nearby Weather Stations

Elev 171 ft 30.74 °N, 88.20 °W | Updated 2 seconds ago

Clear
Clear
49.3 °F
Feels Like 49 °F
N
0.0
Wind Variable Wind from NW
Gusts 2.0 mph

Today
High -- | Low -- °F
--% Chance of Precip.
Yesterday
High -- | Low -- °F
Precip. -- in
6:29 AM 4:50 PM
Waxing Crescent, 34% visible
Pressure 30.41 in
Visibility 10.0 miles
Clouds Clear
Windchill 49 °F
Dew Point 34 °F
Humidity 55%
Rainfall 0.00 in
Snow Depth Not available.
UV 0 out of 12
Pollen 2.10 out of 12
Air Quality Not available.
Flu Activity Not available.
METAR KMOB 272256Z 34006KT 10SM CLR 10/M01 A3041 RMK AO2 SLP296 T01001006

More Conditions Fewer Conditions

Pressure 30.41 in
Visibility 10.0 miles
Clouds Clear
Windchill 49 °F
Dew Point 34 °F
Humidity 55%
Rainfall 0.00 in
Snow Depth Not available.
UV 0 out of 12
Pollen 2.10 out of 12
Air Quality Not available.
Flu Activity Not available.
METAR KMOB 272256Z 34006KT 10SM CLR 10/M01 A3041 RMK AO2 SLP296 T01001006

More Conditions Fewer Conditions

10-Day Weather Forecast

Almanac

Astronomy

Nov. 27, 2014 Rise Set
Actual Time
Civil Twilight
Nautical Twilight
Astronomical Twilight
Moon
Length of Visible Light
Length of Day
Tomorrow will be .
, % of the Moon is Illuminated

Today's Extremes

State Highs State Lows

Community

WunderPhotos

Upload Photos

1,774,135 photos uploaded!

WunderBlogs® & News

Nearby

Air Quality

  Air Quality AQ Index Pollutant
Not available.

Snow Depth

Station Depth Elevation

Earthquake Activity

City Distance Mag. Time & Date
Minimum magnitude displayed is 2.5.

Coastal Water Temperatures

Place Temperature

Nearby Weather Stations